sensor_id;sensor_type;location;lat;lon;timestamp;P1;durP1;ratioP1;P2;durP2;ratioP2
18776;SDS011;9517;51.174;4.160;2022-09-09T00:02:18;11.27;;;4.13;;
18776;SDS011;9517;51.174;4.160;2022-09-09T00:04:51;12.37;;;3.70;;
18776;SDS011;9517;51.174;4.160;2022-09-09T00:07:31;14.37;;;4.10;;
18776;SDS011;9517;51.174;4.160;2022-09-09T00:10:12;13.87;;;4.23;;
18776;SDS011;9517;51.174;4.160;2022-09-09T00:12:47;13.93;;;3.90;;
18776;SDS011;9517;51.174;4.160;2022-09-09T00:15:22;15.00;;;3.87;;
18776;SDS011;9517;51.174;4.160;2022-09-09T00:17:53;13.43;;;3.67;;
18776;SDS011;9517;51.174;4.160;2022-09-09T00:20:28;13.30;;;3.70;;
18776;SDS011;9517;51.174;4.160;2022-09-09T00:23:03;14.37;;;3.43;;
18776;SDS011;9517;51.174;4.160;2022-09-09T00:25:37;16.07;;;4.10;;
18776;SDS011;9517;51.174;4.160;2022-09-09T00:28:13;13.07;;;3.87;;
18776;SDS011;9517;51.174;4.160;2022-09-09T00:30:44;11.30;;;3.47;;
18776;SDS011;9517;51.174;4.160;2022-09-09T00:33:13;18.27;;;4.10;;
18776;SDS011;9517;51.174;4.160;2022-09-09T00:35:44;12.90;;;3.90;;
18776;SDS011;9517;51.174;4.160;2022-09-09T00:38:14;13.90;;;3.10;;
18776;SDS011;9517;51.174;4.160;2022-09-09T00:40:45;17.27;;;3.83;;
18776;SDS011;9517;51.174;4.160;2022-09-09T00:43:24;13.30;;;3.80;;
18776;SDS011;9517;51.174;4.160;2022-09-09T00:45:59;13.37;;;3.30;;
18776;SDS011;9517;51.174;4.160;2022-09-09T00:48:38;11.40;;;3.20;;
18776;SDS011;9517;51.174;4.160;2022-09-09T00:51:14;15.50;;;3.70;;
18776;SDS011;9517;51.174;4.160;2022-09-09T00:53:58;12.77;;;3.10;;
18776;SDS011;9517;51.174;4.160;2022-09-09T00:56:37;13.63;;;3.07;;
18776;SDS011;9517;51.174;4.160;2022-09-09T00:59:14;13.23;;;3.10;;
18776;SDS011;9517;51.174;4.160;2022-09-09T01:01:50;10.43;;;3.10;;
18776;SDS011;9517;51.174;4.160;2022-09-09T01:04:21;13.97;;;3.30;;
18776;SDS011;9517;51.174;4.160;2022-09-09T01:06:59;11.43;;;3.50;;
18776;SDS011;9517;51.174;4.160;2022-09-09T01:09:32;12.13;;;3.20;;
18776;SDS011;9517;51.174;4.160;2022-09-09T01:12:07;12.57;;;3.50;;
18776;SDS011;9517;51.174;4.160;2022-09-09T01:14:40;11.83;;;3.00;;
18776;SDS011;9517;51.174;4.160;2022-09-09T01:17:14;17.47;;;3.20;;
18776;SDS011;9517;51.174;4.160;2022-09-09T01:19:47;11.40;;;3.00;;
18776;SDS011;9517;51.174;4.160;2022-09-09T01:22:26;16.77;;;3.13;;
18776;SDS011;9517;51.174;4.160;2022-09-09T01:25:23;18.03;;;3.53;;
18776;SDS011;9517;51.174;4.160;2022-09-09T01:27:57;9.07;;;3.03;;
18776;SDS011;9517;51.174;4.160;2022-09-09T01:30:28;14.73;;;3.03;;
18776;SDS011;9517;51.174;4.160;2022-09-09T01:32:55;12.90;;;3.17;;
18776;SDS011;9517;51.174;4.160;2022-09-09T01:35:37;13.53;;;2.63;;
18776;SDS011;9517;51.174;4.160;2022-09-09T01:38:10;8.50;;;2.37;;
18776;SDS011;9517;51.174;4.160;2022-09-09T01:40:38;9.03;;;2.60;;
18776;SDS011;9517;51.174;4.160;2022-09-09T01:43:06;10.03;;;2.77;;
18776;SDS011;9517;51.174;4.160;2022-09-09T01:45:34;14.80;;;2.50;;
18776;SDS011;9517;51.174;4.160;2022-09-09T01:48:01;8.43;;;2.07;;
18776;SDS011;9517;51.174;4.160;2022-09-09T01:50:29;11.77;;;3.40;;
18776;SDS011;9517;51.174;4.160;2022-09-09T01:52:57;8.73;;;2.43;;
18776;SDS011;9517;51.174;4.160;2022-09-09T01:55:28;10.90;;;2.30;;
18776;SDS011;9517;51.174;4.160;2022-09-09T01:58:01;8.20;;;2.47;;
18776;SDS011;9517;51.174;4.160;2022-09-09T02:00:48;11.00;;;2.47;;
18776;SDS011;9517;51.174;4.160;2022-09-09T02:03:21;11.03;;;2.37;;
18776;SDS011;9517;51.174;4.160;2022-09-09T02:05:55;9.37;;;2.50;;
18776;SDS011;9517;51.174;4.160;2022-09-09T02:08:30;13.37;;;2.67;;
18776;SDS011;9517;51.174;4.160;2022-09-09T02:11:06;11.87;;;2.80;;
18776;SDS011;9517;51.174;4.160;2022-09-09T02:13:39;12.97;;;2.80;;
18776;SDS011;9517;51.174;4.160;2022-09-09T02:16:08;14.77;;;3.03;;
18776;SDS011;9517;51.174;4.160;2022-09-09T02:18:40;12.00;;;3.03;;
18776;SDS011;9517;51.174;4.160;2022-09-09T02:21:12;13.00;;;3.70;;
18776;SDS011;9517;51.174;4.160;2022-09-09T02:23:40;13.47;;;3.90;;
18776;SDS011;9517;51.174;4.160;2022-09-09T02:26:10;16.17;;;3.93;;
18776;SDS011;9517;51.174;4.160;2022-09-09T02:28:46;11.73;;;3.67;;
18776;SDS011;9517;51.174;4.160;2022-09-09T02:31:15;12.53;;;3.43;;
18776;SDS011;9517;51.174;4.160;2022-09-09T02:33:48;15.60;;;3.43;;
18776;SDS011;9517;51.174;4.160;2022-09-09T02:36:18;14.73;;;3.70;;
18776;SDS011;9517;51.174;4.160;2022-09-09T02:38:49;12.17;;;3.87;;
18776;SDS011;9517;51.174;4.160;2022-09-09T02:41:19;16.93;;;4.47;;
18776;SDS011;9517;51.174;4.160;2022-09-09T02:43:51;15.23;;;4.07;;
18776;SDS011;9517;51.174;4.160;2022-09-09T02:46:23;14.93;;;4.00;;
18776;SDS011;9517;51.174;4.160;2022-09-09T02:49:09;16.83;;;4.30;;
18776;SDS011;9517;51.174;4.160;2022-09-09T02:51:39;20.03;;;4.50;;
18776;SDS011;9517;51.174;4.160;2022-09-09T02:54:15;16.10;;;3.97;;
18776;SDS011;9517;51.174;4.160;2022-09-09T02:56:48;15.57;;;3.90;;
18776;SDS011;9517;51.174;4.160;2022-09-09T02:59:22;19.47;;;4.30;;
18776;SDS011;9517;51.174;4.160;2022-09-09T03:01:55;12.30;;;3.60;;
18776;SDS011;9517;51.174;4.160;2022-09-09T03:04:22;15.57;;;3.87;;
18776;SDS011;9517;51.174;4.160;2022-09-09T03:06:49;18.27;;;3.73;;
18776;SDS011;9517;51.174;4.160;2022-09-09T03:09:16;18.63;;;4.17;;
18776;SDS011;9517;51.174;4.160;2022-09-09T03:11:49;11.00;;;3.60;;
18776;SDS011;9517;51.174;4.160;2022-09-09T03:14:16;16.13;;;3.80;;
18776;SDS011;9517;51.174;4.160;2022-09-09T03:16:51;16.17;;;4.17;;
18776;SDS011;9517;51.174;4.160;2022-09-09T03:19:19;15.00;;;3.60;;
18776;SDS011;9517;51.174;4.160;2022-09-09T03:21:47;16.60;;;4.23;;
18776;SDS011;9517;51.174;4.160;2022-09-09T03:24:14;22.10;;;4.00;;
18776;SDS011;9517;51.174;4.160;2022-09-09T03:26:42;14.47;;;3.60;;
18776;SDS011;9517;51.174;4.160;2022-09-09T03:29:10;17.43;;;3.77;;
18776;SDS011;9517;51.174;4.160;2022-09-09T03:31:38;15.47;;;3.27;;
18776;SDS011;9517;51.174;4.160;2022-09-09T03:34:07;17.43;;;3.67;;
18776;SDS011;9517;51.174;4.160;2022-09-09T03:36:34;21.33;;;3.97;;
18776;SDS011;9517;51.174;4.160;2022-09-09T03:39:01;14.63;;;3.50;;
18776;SDS011;9517;51.174;4.160;2022-09-09T03:41:29;16.40;;;3.87;;
18776;SDS011;9517;51.174;4.160;2022-09-09T03:43:56;20.33;;;3.10;;
18776;SDS011;9517;51.174;4.160;2022-09-09T03:46:24;16.30;;;3.87;;
18776;SDS011;9517;51.174;4.160;2022-09-09T03:48:52;15.47;;;3.30;;
18776;SDS011;9517;51.174;4.160;2022-09-09T03:51:21;13.70;;;3.30;;
18776;SDS011;9517;51.174;4.160;2022-09-09T03:53:49;19.53;;;4.17;;
18776;SDS011;9517;51.174;4.160;2022-09-09T03:56:16;17.37;;;3.70;;
18776;SDS011;9517;51.174;4.160;2022-09-09T03:58:50;19.47;;;4.03;;
18776;SDS011;9517;51.174;4.160;2022-09-09T04:01:18;18.43;;;3.33;;
18776;SDS011;9517;51.174;4.160;2022-09-09T04:03:48;13.10;;;3.40;;
18776;SDS011;9517;51.174;4.160;2022-09-09T04:06:15;19.13;;;3.33;;
18776;SDS011;9517;51.174;4.160;2022-09-09T04:08:44;18.00;;;4.10;;
18776;SDS011;9517;51.174;4.160;2022-09-09T04:11:13;20.87;;;3.30;;
18776;SDS011;9517;51.174;4.160;2022-09-09T04:13:41;15.83;;;3.27;;
18776;SDS011;9517;51.174;4.160;2022-09-09T04:16:09;26.03;;;3.67;;
18776;SDS011;9517;51.174;4.160;2022-09-09T04:18:38;18.70;;;4.10;;
18776;SDS011;9517;51.174;4.160;2022-09-09T04:21:05;16.33;;;3.23;;
18776;SDS011;9517;51.174;4.160;2022-09-09T04:23:33;19.00;;;3.53;;
18776;SDS011;9517;51.174;4.160;2022-09-09T04:26:02;12.87;;;2.97;;
18776;SDS011;9517;51.174;4.160;2022-09-09T04:28:31;19.90;;;3.90;;
18776;SDS011;9517;51.174;4.160;2022-09-09T04:31:03;15.97;;;3.40;;
18776;SDS011;9517;51.174;4.160;2022-09-09T04:33:31;17.90;;;3.73;;
18776;SDS011;9517;51.174;4.160;2022-09-09T04:35:58;18.60;;;3.67;;
18776;SDS011;9517;51.174;4.160;2022-09-09T04:38:25;20.37;;;3.70;;
18776;SDS011;9517;51.174;4.160;2022-09-09T04:40:52;19.57;;;3.57;;
18776;SDS011;9517;51.174;4.160;2022-09-09T04:43:21;20.93;;;3.70;;
18776;SDS011;9517;51.174;4.160;2022-09-09T04:45:51;21.40;;;4.10;;
18776;SDS011;9517;51.174;4.160;2022-09-09T04:48:19;26.13;;;4.17;;
18776;SDS011;9517;51.174;4.160;2022-09-09T04:50:53;19.27;;;3.83;;
18776;SDS011;9517;51.174;4.160;2022-09-09T04:53:22;14.83;;;3.50;;
18776;SDS011;9517;51.174;4.160;2022-09-09T04:55:50;19.10;;;3.70;;
18776;SDS011;9517;51.174;4.160;2022-09-09T04:58:17;17.57;;;3.67;;
18776;SDS011;9517;51.174;4.160;2022-09-09T05:00:49;20.10;;;3.43;;
18776;SDS011;9517;51.174;4.160;2022-09-09T05:03:17;17.07;;;3.50;;
18776;SDS011;9517;51.174;4.160;2022-09-09T05:05:46;20.47;;;3.63;;
18776;SDS011;9517;51.174;4.160;2022-09-09T05:08:14;14.60;;;3.47;;
18776;SDS011;9517;51.174;4.160;2022-09-09T05:10:41;24.63;;;3.77;;
18776;SDS011;9517;51.174;4.160;2022-09-09T05:13:09;16.97;;;3.60;;
18776;SDS011;9517;51.174;4.160;2022-09-09T05:15:36;23.17;;;3.80;;
18776;SDS011;9517;51.174;4.160;2022-09-09T05:18:05;21.17;;;3.97;;
18776;SDS011;9517;51.174;4.160;2022-09-09T05:20:32;20.47;;;3.57;;
18776;SDS011;9517;51.174;4.160;2022-09-09T05:22:59;16.23;;;3.17;;
18776;SDS011;9517;51.174;4.160;2022-09-09T05:25:26;13.77;;;3.20;;
18776;SDS011;9517;51.174;4.160;2022-09-09T05:27:53;20.13;;;4.00;;
18776;SDS011;9517;51.174;4.160;2022-09-09T05:30:20;18.73;;;3.50;;
18776;SDS011;9517;51.174;4.160;2022-09-09T05:32:51;18.27;;;3.23;;
18776;SDS011;9517;51.174;4.160;2022-09-09T05:35:20;20.57;;;3.60;;
18776;SDS011;9517;51.174;4.160;2022-09-09T05:37:48;15.83;;;2.97;;
18776;SDS011;9517;51.174;4.160;2022-09-09T05:40:15;16.73;;;3.30;;
18776;SDS011;9517;51.174;4.160;2022-09-09T05:42:42;18.73;;;3.30;;
18776;SDS011;9517;51.174;4.160;2022-09-09T05:45:09;17.73;;;3.30;;
18776;SDS011;9517;51.174;4.160;2022-09-09T05:47:36;11.70;;;2.93;;
18776;SDS011;9517;51.174;4.160;2022-09-09T05:50:04;27.13;;;4.33;;
18776;SDS011;9517;51.174;4.160;2022-09-09T05:52:33;25.63;;;4.23;;
18776;SDS011;9517;51.174;4.160;2022-09-09T05:55:00;23.17;;;3.90;;
18776;SDS011;9517;51.174;4.160;2022-09-09T05:57:29;22.03;;;3.80;;
18776;SDS011;9517;51.174;4.160;2022-09-09T05:59:56;25.23;;;4.10;;
18776;SDS011;9517;51.174;4.160;2022-09-09T06:02:23;19.53;;;3.57;;
18776;SDS011;9517;51.174;4.160;2022-09-09T06:04:51;20.00;;;3.37;;
18776;SDS011;9517;51.174;4.160;2022-09-09T06:07:18;17.20;;;3.23;;
18776;SDS011;9517;51.174;4.160;2022-09-09T06:09:46;16.13;;;3.30;;
18776;SDS011;9517;51.174;4.160;2022-09-09T06:12:13;18.47;;;3.33;;
18776;SDS011;9517;51.174;4.160;2022-09-09T06:14:41;17.17;;;3.10;;
18776;SDS011;9517;51.174;4.160;2022-09-09T06:17:07;17.93;;;3.40;;
18776;SDS011;9517;51.174;4.160;2022-09-09T06:19:35;19.63;;;3.13;;
18776;SDS011;9517;51.174;4.160;2022-09-09T06:22:02;20.17;;;4.30;;
18776;SDS011;9517;51.174;4.160;2022-09-09T06:24:30;19.03;;;4.27;;
18776;SDS011;9517;51.174;4.160;2022-09-09T06:26:59;21.27;;;4.33;;
18776;SDS011;9517;51.174;4.160;2022-09-09T06:29:26;20.67;;;4.03;;
18776;SDS011;9517;51.174;4.160;2022-09-09T06:31:53;16.93;;;2.90;;
18776;SDS011;9517;51.174;4.160;2022-09-09T06:34:20;18.27;;;3.60;;
18776;SDS011;9517;51.174;4.160;2022-09-09T06:36:48;17.57;;;2.97;;
18776;SDS011;9517;51.174;4.160;2022-09-09T06:39:16;16.60;;;2.63;;
18776;SDS011;9517;51.174;4.160;2022-09-09T06:41:43;15.13;;;2.67;;
18776;SDS011;9517;51.174;4.160;2022-09-09T06:44:11;20.00;;;3.20;;
18776;SDS011;9517;51.174;4.160;2022-09-09T06:46:41;14.40;;;2.80;;
18776;SDS011;9517;51.174;4.160;2022-09-09T06:49:11;16.50;;;3.00;;
18776;SDS011;9517;51.174;4.160;2022-09-09T06:51:38;16.87;;;2.93;;
18776;SDS011;9517;51.174;4.160;2022-09-09T06:54:08;14.60;;;2.47;;
18776;SDS011;9517;51.174;4.160;2022-09-09T06:56:36;20.57;;;4.00;;
18776;SDS011;9517;51.174;4.160;2022-09-09T06:59:06;15.80;;;2.80;;
18776;SDS011;9517;51.174;4.160;2022-09-09T07:01:36;19.90;;;4.03;;
18776;SDS011;9517;51.174;4.160;2022-09-09T07:04:05;15.07;;;3.33;;
18776;SDS011;9517;51.174;4.160;2022-09-09T07:06:34;16.23;;;3.57;;
18776;SDS011;9517;51.174;4.160;2022-09-09T07:09:03;22.40;;;4.00;;
18776;SDS011;9517;51.174;4.160;2022-09-09T07:11:31;17.97;;;3.40;;
18776;SDS011;9517;51.174;4.160;2022-09-09T07:13:59;25.10;;;4.10;;
18776;SDS011;9517;51.174;4.160;2022-09-09T07:16:30;21.53;;;3.63;;
18776;SDS011;9517;51.174;4.160;2022-09-09T07:18:59;22.20;;;4.60;;
18776;SDS011;9517;51.174;4.160;2022-09-09T07:21:28;18.80;;;3.43;;
18776;SDS011;9517;51.174;4.160;2022-09-09T07:23:56;18.10;;;3.40;;
18776;SDS011;9517;51.174;4.160;2022-09-09T07:26:25;19.87;;;3.13;;
18776;SDS011;9517;51.174;4.160;2022-09-09T07:28:54;20.47;;;3.03;;
18776;SDS011;9517;51.174;4.160;2022-09-09T07:31:23;20.43;;;4.23;;
18776;SDS011;9517;51.174;4.160;2022-09-09T07:33:52;18.47;;;2.97;;
18776;SDS011;9517;51.174;4.160;2022-09-09T07:36:21;19.20;;;3.53;;
18776;SDS011;9517;51.174;4.160;2022-09-09T07:38:51;13.37;;;2.53;;
18776;SDS011;9517;51.174;4.160;2022-09-09T07:41:20;15.07;;;3.10;;
18776;SDS011;9517;51.174;4.160;2022-09-09T07:43:49;14.23;;;2.90;;
18776;SDS011;9517;51.174;4.160;2022-09-09T07:46:19;28.77;;;5.17;;
18776;SDS011;9517;51.174;4.160;2022-09-09T07:48:49;15.03;;;2.70;;
18776;SDS011;9517;51.174;4.160;2022-09-09T07:51:24;15.40;;;3.00;;
18776;SDS011;9517;51.174;4.160;2022-09-09T07:53:52;17.47;;;3.80;;
18776;SDS011;9517;51.174;4.160;2022-09-09T07:56:22;15.47;;;3.33;;
18776;SDS011;9517;51.174;4.160;2022-09-09T07:58:50;18.27;;;3.30;;
18776;SDS011;9517;51.174;4.160;2022-09-09T08:01:19;15.83;;;3.03;;
18776;SDS011;9517;51.174;4.160;2022-09-09T08:03:52;31.63;;;3.67;;
18776;SDS011;9517;51.174;4.160;2022-09-09T08:06:25;19.03;;;2.80;;
18776;SDS011;9517;51.174;4.160;2022-09-09T08:08:53;16.60;;;2.93;;
18776;SDS011;9517;51.174;4.160;2022-09-09T08:11:21;18.47;;;3.00;;
18776;SDS011;9517;51.174;4.160;2022-09-09T08:13:50;16.07;;;2.63;;
18776;SDS011;9517;51.174;4.160;2022-09-09T08:16:19;15.17;;;3.23;;
18776;SDS011;9517;51.174;4.160;2022-09-09T08:18:49;13.53;;;2.20;;
18776;SDS011;9517;51.174;4.160;2022-09-09T08:21:16;13.83;;;2.90;;
18776;SDS011;9517;51.174;4.160;2022-09-09T08:23:49;12.97;;;2.70;;
18776;SDS011;9517;51.174;4.160;2022-09-09T08:26:18;14.13;;;2.87;;
18776;SDS011;9517;51.174;4.160;2022-09-09T08:28:48;16.53;;;2.63;;
18776;SDS011;9517;51.174;4.160;2022-09-09T08:31:18;15.77;;;2.57;;
18776;SDS011;9517;51.174;4.160;2022-09-09T08:33:46;12.17;;;2.70;;
18776;SDS011;9517;51.174;4.160;2022-09-09T08:36:14;15.13;;;2.37;;
18776;SDS011;9517;51.174;4.160;2022-09-09T08:38:43;13.40;;;2.00;;
18776;SDS011;9517;51.174;4.160;2022-09-09T08:41:30;10.93;;;2.60;;
18776;SDS011;9517;51.174;4.160;2022-09-09T08:44:17;43.27;;;6.43;;
18776;SDS011;9517;51.174;4.160;2022-09-09T08:46:54;23.23;;;4.27;;
18776;SDS011;9517;51.174;4.160;2022-09-09T08:52:22;17.93;;;2.97;;
18776;SDS011;9517;51.174;4.160;2022-09-09T08:54:53;14.93;;;2.70;;
18776;SDS011;9517;51.174;4.160;2022-09-09T08:57:26;18.40;;;2.90;;
18776;SDS011;9517;51.174;4.160;2022-09-09T08:59:56;13.37;;;2.80;;
18776;SDS011;9517;51.174;4.160;2022-09-09T09:02:25;16.00;;;2.30;;
18776;SDS011;9517;51.174;4.160;2022-09-09T09:05:02;17.07;;;2.37;;
18776;SDS011;9517;51.174;4.160;2022-09-09T09:07:42;11.90;;;2.27;;
18776;SDS011;9517;51.174;4.160;2022-09-09T09:10:25;13.63;;;2.23;;
18776;SDS011;9517;51.174;4.160;2022-09-09T09:13:06;27.83;;;3.67;;
18776;SDS011;9517;51.174;4.160;2022-09-09T09:15:38;11.53;;;2.13;;
18776;SDS011;9517;51.174;4.160;2022-09-09T09:18:07;8.73;;;2.20;;
18776;SDS011;9517;51.174;4.160;2022-09-09T09:20:40;10.03;;;2.03;;
18776;SDS011;9517;51.174;4.160;2022-09-09T09:23:16;12.03;;;2.50;;
18776;SDS011;9517;51.174;4.160;2022-09-09T09:25:48;14.83;;;2.83;;
18776;SDS011;9517;51.174;4.160;2022-09-09T09:28:21;14.50;;;2.40;;
18776;SDS011;9517;51.174;4.160;2022-09-09T09:30:52;17.23;;;3.40;;
18776;SDS011;9517;51.174;4.160;2022-09-09T09:33:24;15.60;;;2.63;;
18776;SDS011;9517;51.174;4.160;2022-09-09T09:35:58;16.00;;;2.67;;
18776;SDS011;9517;51.174;4.160;2022-09-09T09:38:26;30.77;;;3.67;;
18776;SDS011;9517;51.174;4.160;2022-09-09T09:40:55;16.97;;;3.13;;
18776;SDS011;9517;51.174;4.160;2022-09-09T09:43:26;20.97;;;3.83;;
18776;SDS011;9517;51.174;4.160;2022-09-09T09:45:54;35.03;;;5.27;;
18776;SDS011;9517;51.174;4.160;2022-09-09T09:48:23;14.20;;;2.57;;
18776;SDS011;9517;51.174;4.160;2022-09-09T09:50:51;14.03;;;2.60;;
18776;SDS011;9517;51.174;4.160;2022-09-09T09:53:21;13.80;;;2.50;;
18776;SDS011;9517;51.174;4.160;2022-09-09T09:55:53;18.80;;;3.10;;
18776;SDS011;9517;51.174;4.160;2022-09-09T09:58:23;10.53;;;2.63;;
18776;SDS011;9517;51.174;4.160;2022-09-09T10:00:52;20.97;;;3.07;;
18776;SDS011;9517;51.174;4.160;2022-09-09T10:03:22;13.90;;;2.43;;
18776;SDS011;9517;51.174;4.160;2022-09-09T10:05:51;12.27;;;2.27;;
18776;SDS011;9517;51.174;4.160;2022-09-09T10:08:18;10.10;;;1.80;;
18776;SDS011;9517;51.174;4.160;2022-09-09T10:13:36;9.03;;;2.10;;
18776;SDS011;9517;51.174;4.160;2022-09-09T10:16:17;12.20;;;2.17;;
18776;SDS011;9517;51.174;4.160;2022-09-09T10:18:57;10.13;;;1.97;;
18776;SDS011;9517;51.174;4.160;2022-09-09T10:21:36;10.13;;;2.80;;
18776;SDS011;9517;51.174;4.160;2022-09-09T10:24:47;8.97;;;1.90;;
18776;SDS011;9517;51.174;4.160;2022-09-09T10:27:29;11.33;;;2.10;;
18776;SDS011;9517;51.174;4.160;2022-09-09T10:30:05;9.10;;;1.90;;
18776;SDS011;9517;51.174;4.160;2022-09-09T10:32:41;10.40;;;1.90;;
18776;SDS011;9517;51.174;4.160;2022-09-09T10:35:14;11.63;;;2.00;;
18776;SDS011;9517;51.174;4.160;2022-09-09T10:37:54;41.70;;;6.77;;
18776;SDS011;9517;51.174;4.160;2022-09-09T10:40:37;11.23;;;2.43;;
18776;SDS011;9517;51.174;4.160;2022-09-09T10:43:10;9.47;;;1.87;;
18776;SDS011;9517;51.174;4.160;2022-09-09T10:45:49;10.60;;;2.30;;
18776;SDS011;9517;51.174;4.160;2022-09-09T10:48:36;9.60;;;1.90;;
18776;SDS011;9517;51.174;4.160;2022-09-09T10:51:22;59.87;;;6.17;;
18776;SDS011;9517;51.174;4.160;2022-09-09T10:54:02;8.23;;;1.60;;
18776;SDS011;9517;51.174;4.160;2022-09-09T10:56:40;11.77;;;2.03;;
18776;SDS011;9517;51.174;4.160;2022-09-09T10:59:12;7.73;;;1.57;;
18776;SDS011;9517;51.174;4.160;2022-09-09T11:01:47;7.83;;;1.50;;
18776;SDS011;9517;51.174;4.160;2022-09-09T11:04:22;9.00;;;1.80;;
18776;SDS011;9517;51.174;4.160;2022-09-09T11:06:53;9.03;;;2.30;;
18776;SDS011;9517;51.174;4.160;2022-09-09T11:09:22;11.87;;;1.57;;
18776;SDS011;9517;51.174;4.160;2022-09-09T11:11:52;20.97;;;3.40;;
18776;SDS011;9517;51.174;4.160;2022-09-09T11:14:26;10.43;;;1.73;;
18776;SDS011;9517;51.174;4.160;2022-09-09T11:16:59;28.23;;;4.47;;
18776;SDS011;9517;51.174;4.160;2022-09-09T11:19:33;6.47;;;1.30;;
18776;SDS011;9517;51.174;4.160;2022-09-09T11:22:03;11.60;;;1.50;;
18776;SDS011;9517;51.174;4.160;2022-09-09T11:24:35;49.53;;;6.83;;
18776;SDS011;9517;51.174;4.160;2022-09-09T11:27:08;7.03;;;1.47;;
18776;SDS011;9517;51.174;4.160;2022-09-09T11:29:45;7.03;;;1.50;;
18776;SDS011;9517;51.174;4.160;2022-09-09T11:32:31;6.17;;;1.30;;
18776;SDS011;9517;51.174;4.160;2022-09-09T11:35:29;7.13;;;1.23;;
18776;SDS011;9517;51.174;4.160;2022-09-09T11:38:04;9.67;;;1.27;;
18776;SDS011;9517;51.174;4.160;2022-09-09T11:40:43;5.37;;;1.10;;
18776;SDS011;9517;51.174;4.160;2022-09-09T11:43:10;7.30;;;1.27;;
18776;SDS011;9517;51.174;4.160;2022-09-09T11:45:40;5.57;;;1.30;;
18776;SDS011;9517;51.174;4.160;2022-09-09T11:48:22;6.50;;;0.80;;
18776;SDS011;9517;51.174;4.160;2022-09-09T11:51:00;13.43;;;1.40;;
18776;SDS011;9517;51.174;4.160;2022-09-09T11:53:32;7.23;;;1.10;;
18776;SDS011;9517;51.174;4.160;2022-09-09T11:56:00;7.87;;;1.40;;
18776;SDS011;9517;51.174;4.160;2022-09-09T11:58:39;9.17;;;1.40;;
18776;SDS011;9517;51.174;4.160;2022-09-09T12:04:27;5.10;;;1.20;;
18776;SDS011;9517;51.174;4.160;2022-09-09T12:06:59;7.63;;;1.00;;
18776;SDS011;9517;51.174;4.160;2022-09-09T12:09:29;9.77;;;1.20;;
18776;SDS011;9517;51.174;4.160;2022-09-09T12:12:23;6.17;;;1.07;;
18776;SDS011;9517;51.174;4.160;2022-09-09T12:14:56;4.20;;;0.97;;
18776;SDS011;9517;51.174;4.160;2022-09-09T12:17:27;10.80;;;1.20;;
18776;SDS011;9517;51.174;4.160;2022-09-09T12:20:00;6.27;;;0.90;;
18776;SDS011;9517;51.174;4.160;2022-09-09T12:22:35;9.67;;;1.30;;
18776;SDS011;9517;51.174;4.160;2022-09-09T12:25:15;6.50;;;1.40;;
18776;SDS011;9517;51.174;4.160;2022-09-09T12:27:50;9.43;;;1.03;;
18776;SDS011;9517;51.174;4.160;2022-09-09T12:30:28;6.67;;;1.20;;
18776;SDS011;9517;51.174;4.160;2022-09-09T12:33:00;9.00;;;1.57;;
18776;SDS011;9517;51.174;4.160;2022-09-09T12:35:29;6.40;;;1.10;;
18776;SDS011;9517;51.174;4.160;2022-09-09T12:37:58;6.77;;;1.43;;
18776;SDS011;9517;51.174;4.160;2022-09-09T12:40:28;8.27;;;1.33;;
18776;SDS011;9517;51.174;4.160;2022-09-09T12:42:57;7.30;;;1.00;;
18776;SDS011;9517;51.174;4.160;2022-09-09T12:45:26;5.03;;;1.20;;
18776;SDS011;9517;51.174;4.160;2022-09-09T12:47:57;6.57;;;1.00;;
18776;SDS011;9517;51.174;4.160;2022-09-09T12:50:28;6.93;;;1.00;;
18776;SDS011;9517;51.174;4.160;2022-09-09T12:52:58;7.10;;;1.13;;
18776;SDS011;9517;51.174;4.160;2022-09-09T12:55:28;6.50;;;1.10;;
18776;SDS011;9517;51.174;4.160;2022-09-09T12:57:58;5.37;;;1.20;;
18776;SDS011;9517;51.174;4.160;2022-09-09T13:00:29;5.80;;;1.13;;
18776;SDS011;9517;51.174;4.160;2022-09-09T13:02:57;8.20;;;1.20;;
18776;SDS011;9517;51.174;4.160;2022-09-09T13:05:26;5.60;;;1.00;;
18776;SDS011;9517;51.174;4.160;2022-09-09T13:08:03;7.97;;;1.70;;
18776;SDS011;9517;51.174;4.160;2022-09-09T13:10:33;8.23;;;1.30;;
18776;SDS011;9517;51.174;4.160;2022-09-09T13:13:03;7.03;;;1.50;;
18776;SDS011;9517;51.174;4.160;2022-09-09T13:15:32;9.13;;;1.23;;
18776;SDS011;9517;51.174;4.160;2022-09-09T13:18:00;5.30;;;1.00;;
18776;SDS011;9517;51.174;4.160;2022-09-09T13:20:36;3.60;;;0.80;;
18776;SDS011;9517;51.174;4.160;2022-09-09T13:23:08;8.07;;;1.47;;
18776;SDS011;9517;51.174;4.160;2022-09-09T13:25:38;6.03;;;1.07;;
18776;SDS011;9517;51.174;4.160;2022-09-09T13:28:19;5.87;;;1.30;;
18776;SDS011;9517;51.174;4.160;2022-09-09T13:30:55;5.00;;;1.10;;
18776;SDS011;9517;51.174;4.160;2022-09-09T13:33:29;4.17;;;1.10;;
18776;SDS011;9517;51.174;4.160;2022-09-09T13:35:58;7.60;;;1.30;;
18776;SDS011;9517;51.174;4.160;2022-09-09T13:38:31;8.57;;;1.17;;
18776;SDS011;9517;51.174;4.160;2022-09-09T13:41:02;8.13;;;1.33;;
18776;SDS011;9517;51.174;4.160;2022-09-09T13:43:31;7.20;;;1.13;;
18776;SDS011;9517;51.174;4.160;2022-09-09T13:46:01;7.03;;;1.10;;
18776;SDS011;9517;51.174;4.160;2022-09-09T13:48:30;6.87;;;1.20;;
18776;SDS011;9517;51.174;4.160;2022-09-09T13:50:59;5.43;;;1.20;;
18776;SDS011;9517;51.174;4.160;2022-09-09T13:53:31;8.17;;;1.20;;
18776;SDS011;9517;51.174;4.160;2022-09-09T13:55:58;5.97;;;1.40;;
18776;SDS011;9517;51.174;4.160;2022-09-09T13:58:26;5.77;;;1.10;;
18776;SDS011;9517;51.174;4.160;2022-09-09T14:00:53;8.23;;;1.37;;
18776;SDS011;9517;51.174;4.160;2022-09-09T14:03:20;7.37;;;1.87;;
18776;SDS011;9517;51.174;4.160;2022-09-09T14:05:47;8.10;;;1.23;;
18776;SDS011;9517;51.174;4.160;2022-09-09T14:08:18;5.90;;;1.20;;
18776;SDS011;9517;51.174;4.160;2022-09-09T14:10:50;5.03;;;1.27;;
18776;SDS011;9517;51.174;4.160;2022-09-09T14:13:17;8.77;;;1.10;;
18776;SDS011;9517;51.174;4.160;2022-09-09T14:15:47;4.83;;;1.07;;
18776;SDS011;9517;51.174;4.160;2022-09-09T14:18:15;7.43;;;1.10;;
18776;SDS011;9517;51.174;4.160;2022-09-09T14:20:42;6.30;;;1.20;;
18776;SDS011;9517;51.174;4.160;2022-09-09T14:23:10;9.17;;;1.50;;
18776;SDS011;9517;51.174;4.160;2022-09-09T14:25:39;7.83;;;1.27;;
18776;SDS011;9517;51.174;4.160;2022-09-09T14:28:10;8.07;;;1.17;;
18776;SDS011;9517;51.174;4.160;2022-09-09T14:30:38;6.17;;;1.10;;
18776;SDS011;9517;51.174;4.160;2022-09-09T14:33:06;6.20;;;1.07;;
18776;SDS011;9517;51.174;4.160;2022-09-09T14:35:33;3.77;;;0.80;;
18776;SDS011;9517;51.174;4.160;2022-09-09T14:38:01;6.57;;;1.20;;
18776;SDS011;9517;51.174;4.160;2022-09-09T14:40:28;5.03;;;1.30;;
18776;SDS011;9517;51.174;4.160;2022-09-09T14:42:56;6.47;;;1.13;;
18776;SDS011;9517;51.174;4.160;2022-09-09T14:45:26;5.73;;;1.67;;
18776;SDS011;9517;51.174;4.160;2022-09-09T14:47:53;4.17;;;1.27;;
18776;SDS011;9517;51.174;4.160;2022-09-09T14:50:22;5.60;;;1.27;;
18776;SDS011;9517;51.174;4.160;2022-09-09T14:52:49;6.60;;;1.60;;
18776;SDS011;9517;51.174;4.160;2022-09-09T14:55:16;8.47;;;1.70;;
18776;SDS011;9517;51.174;4.160;2022-09-09T14:57:44;7.20;;;1.63;;
18776;SDS011;9517;51.174;4.160;2022-09-09T15:00:12;7.67;;;1.30;;
18776;SDS011;9517;51.174;4.160;2022-09-09T15:02:41;5.13;;;1.20;;
18776;SDS011;9517;51.174;4.160;2022-09-09T15:05:08;4.77;;;1.27;;
18776;SDS011;9517;51.174;4.160;2022-09-09T15:07:36;3.40;;;1.20;;
18776;SDS011;9517;51.174;4.160;2022-09-09T15:10:03;3.93;;;1.03;;
18776;SDS011;9517;51.174;4.160;2022-09-09T15:12:31;6.70;;;1.30;;
18776;SDS011;9517;51.174;4.160;2022-09-09T15:15:00;7.07;;;1.30;;
18776;SDS011;9517;51.174;4.160;2022-09-09T15:17:28;6.80;;;1.20;;
18776;SDS011;9517;51.174;4.160;2022-09-09T15:19:56;6.83;;;1.30;;
18776;SDS011;9517;51.174;4.160;2022-09-09T15:22:23;5.07;;;1.30;;
18776;SDS011;9517;51.174;4.160;2022-09-09T15:24:51;5.67;;;1.30;;
18776;SDS011;9517;51.174;4.160;2022-09-09T15:27:18;6.60;;;1.67;;